Bunker Hill, Indiana
Current Conditions -  °F | °C
As of 10:58 PM on Thursday 23 Oct 2014 (Local Time) from KGUS Reporting Station
Broken Clouds Broken Clouds  
Wind Chill: 45°   Ceiling: 22000
Heat Index: 45°   Visibility: 10mi
Dew Point: 44°   Wind: 2mph
Humidity: 97%   Direction: 180°S
Pressure: 30.11"   Gusts: NA
Location:  40.66°N, 86.1°W
Report Text: KGUS 240258Z 18002KT 10SM BKN220 07/07 A3011 RMK AO2A SLP202 T00730068 55001
Loading
Personal Weather Stations






























Interactive Weather Map
Tropical Storm Tracking
New forecast layout! Learn more

10-Day Weather Forecast

Advertisements
Track Severe Weather on mobile